Terminal Aerodrome Forecast
Issued by NWS

Current Version | Previous Version | Text Only | Print | Product List | Glossary On
Versions: 1 2 3 4 5 6 7 8 9 10 11 12 13 14 15 16 17 18 19 20
318
FTUS43 KAPX 122326
TAFTVC
TAF
KTVC 122326Z 1300/1324 34011G19KT 2SM -SHSN OVC020
      TEMPO 1300/1304 1/2SM SHSN OVC012
     FM130400 34007KT 5SM -SHSN BKN020
     FM130900 VRB03KT P6SM OVC015
     FM131000 03004KT P6SM OVC020
     FM131200 13006KT P6SM VCSH OVC030
     FM131500 14007KT P6SM -SN OVC020
     FM132000 08009KT P6SM -SN BKN020
     FM132300 04008KT P6SM -SN BKN025=

USA.gov is the U.S. government's official web portal to all federal, state and local government web resources and services.